createdAt,value
2019-03-26T00:00:21.180Z,99776.28
2019-03-26T00:02:48.181Z,99775.28
2019-03-26T00:05:15.083Z,99777.34
2019-03-26T00:07:42.778Z,99778.62
2019-03-26T00:10:10.091Z,99781.47
2019-03-26T00:12:39.905Z,99787.12
2019-03-26T00:15:06.754Z,99791.78
2019-03-26T00:17:33.700Z,99803.84
2019-03-26T00:20:00.533Z,99798.95
2019-03-26T00:22:27.489Z,99804.52
2019-03-26T00:24:54.326Z,99800.76
2019-03-26T00:27:21.109Z,99804.41
2019-03-26T00:29:47.986Z,99806.88
2019-03-26T00:32:15.292Z,99798.64
2019-03-26T00:34:42.548Z,99800.56
2019-03-26T00:37:09.296Z,99805.68
2019-03-26T00:39:36.074Z,99806.38
2019-03-26T00:42:03.253Z,99812.70
2019-03-26T00:44:30.004Z,99814.83
2019-03-26T00:46:57.572Z,99816.55
2019-03-26T00:49:24.451Z,99819.58
2019-03-26T00:51:51.464Z,99819.20
2019-03-26T00:54:18.306Z,99820.98
2019-03-26T00:56:45.074Z,99824.45
2019-03-26T00:59:11.916Z,99829.87
2019-03-26T01:01:39.103Z,99834.83
2019-03-26T01:04:05.848Z,99838.35
2019-03-26T01:06:33.164Z,99838.52
2019-03-26T01:09:00.468Z,99844.56
2019-03-26T01:11:27.636Z,99841.47
2019-03-26T01:13:54.498Z,99843.79
2019-03-26T01:16:21.762Z,99841.09
2019-03-26T01:18:48.855Z,99840.52
2019-03-26T01:21:16.132Z,99841.23
2019-03-26T01:23:42.860Z,99840.37
2019-03-26T01:26:09.648Z,99835.38
2019-03-26T01:28:36.510Z,99840.85
2019-03-26T01:31:03.530Z,99835.73
2019-03-26T01:33:30.417Z,99844.28
2019-03-26T01:35:59.516Z,99844.77
2019-03-26T01:38:26.453Z,99857.39
2019-03-26T01:40:53.259Z,99851.41
2019-03-26T01:43:19.987Z,99854.03
2019-03-26T01:45:46.794Z,99855.34
2019-03-26T01:48:13.990Z,99856.23
2019-03-26T01:50:40.748Z,99854.95
2019-03-26T01:53:08.165Z,99863.52
2019-03-26T01:55:34.938Z,99856.87
2019-03-26T01:58:03.603Z,99867.39
2019-03-26T02:00:30.438Z,99863.73
2019-03-26T02:02:57.297Z,99856.98
2019-03-26T02:05:24.189Z,99862.78
2019-03-26T02:07:50.931Z,99862.59
2019-03-26T02:10:18.250Z,99866.05
2019-03-26T02:12:45.050Z,99872.55
2019-03-26T02:15:20.372Z,99866.30
2019-03-26T02:17:47.288Z,99870.27
2019-03-26T02:20:16.521Z,99874.70
2019-03-26T02:22:43.874Z,99877.36
2019-03-26T02:25:11.302Z,99877.78
2019-03-26T02:27:38.115Z,99882.07
2019-03-26T02:30:05.605Z,99877.00
2019-03-26T02:32:32.484Z,99876.49
2019-03-26T02:35:16.217Z,99880.63
2019-03-26T02:37:28.453Z,99877.48
2019-03-26T02:39:55.231Z,99877.96
2019-03-26T02:42:22.020Z,99871.97
2019-03-26T02:44:48.956Z,99876.11
2019-03-26T02:47:16.206Z,99874.28
2019-03-26T02:49:43.463Z,99886.20
2019-03-26T02:52:10.271Z,99890.47
2019-03-26T02:54:37.110Z,99890.53
2019-03-26T02:57:04.170Z,99885.63
2019-03-26T02:59:31.375Z,99892.45
2019-03-26T03:01:58.212Z,99892.94
2019-03-26T03:04:25.418Z,99889.86
2019-03-26T03:06:52.319Z,99887.45
2019-03-26T03:09:19.481Z,99894.19
2019-03-26T03:11:46.393Z,99898.12
2019-03-26T03:14:13.234Z,99893.52
2019-03-26T03:16:40.479Z,99890.53
2019-03-26T03:19:07.261Z,99896.10
2019-03-26T03:21:34.530Z,99900.05
2019-03-26T03:24:01.717Z,99901.81
2019-03-26T03:26:28.595Z,99897.26
2019-03-26T03:28:55.869Z,99899.09
2019-03-26T03:31:22.679Z,99906.30
2019-03-26T03:33:49.491Z,99904.79
2019-03-26T03:36:16.279Z,99902.00
2019-03-26T03:38:46.209Z,99906.04
2019-03-26T03:41:12.943Z,99905.56
2019-03-26T03:43:40.081Z,99914.86
2019-03-26T03:46:07.173Z,99912.45
2019-03-26T03:48:35.783Z,99921.39
2019-03-26T03:51:03.497Z,99919.80
2019-03-26T03:53:30.688Z,99923.52
2019-03-26T03:56:00.257Z,99920.24
2019-03-26T03:58:28.783Z,99922.20
2019-03-26T04:00:55.759Z,99921.39
2019-03-26T04:03:23.161Z,99929.19
2019-03-26T04:05:50.309Z,99928.55
2019-03-26T04:08:17.541Z,99929.86
2019-03-26T04:10:44.345Z,99927.88
2019-03-26T04:13:11.375Z,99931.50
2019-03-26T04:15:38.731Z,99936.30
2019-03-26T04:18:05.722Z,99941.21
2019-03-26T04:20:32.937Z,99935.34
2019-03-26T04:22:59.740Z,99940.73
2019-03-26T04:25:26.558Z,99940.05
2019-03-26T04:27:54.104Z,99936.20
2019-03-26T04:30:27.473Z,99941.81
2019-03-26T04:32:54.461Z,99946.30
2019-03-26T04:35:21.208Z,99947.01
2019-03-26T04:37:48.101Z,99955.72
2019-03-26T04:40:14.966Z,99952.30
2019-03-26T04:42:42.373Z,99952.27
2019-03-26T04:45:09.712Z,99960.54
2019-03-26T04:47:36.598Z,99958.33
2019-03-26T04:50:06.016Z,99961.43
2019-03-26T04:52:32.917Z,99961.87
2019-03-26T04:54:59.816Z,99955.53
2019-03-26T04:57:26.578Z,99957.86
2019-03-26T04:59:53.456Z,99966.30
2019-03-26T05:02:20.324Z,99965.24
2019-03-26T05:04:47.214Z,99970.63
2019-03-26T05:07:13.990Z,99970.23
2019-03-26T05:09:41.292Z,99973.73
2019-03-26T05:12:08.316Z,99972.64
2019-03-26T05:14:35.649Z,99974.85
2019-03-26T05:17:02.899Z,99977.94
2019-03-26T05:19:29.801Z,99981.33
2019-03-26T05:21:56.554Z,99988.14
2019-03-26T05:24:23.908Z,99990.42
2019-03-26T05:26:50.671Z,99993.59
2019-03-26T05:29:17.459Z,99994.36
2019-03-26T05:31:44.494Z,99991.33
2019-03-26T05:34:11.654Z,99992.06
2019-03-26T05:36:50.707Z,99999.41
2019-03-26T05:39:07.731Z,99997.08
2019-03-26T05:41:34.786Z,99997.28
2019-03-26T05:44:02.520Z,99995.15
2019-03-26T05:46:29.470Z,99995.95
2019-03-26T05:48:56.708Z,100000.57
2019-03-26T05:51:23.563Z,99999.66
2019-03-26T05:53:50.423Z,100001.41
2019-03-26T05:56:17.209Z,100007.20
2019-03-26T05:58:44.413Z,100001.88
2019-03-26T06:01:11.531Z,100006.31
2019-03-26T06:03:38.751Z,100019.52
2019-03-26T06:06:05.854Z,100016.33
2019-03-26T06:08:32.705Z,100017.67
2019-03-26T06:10:59.533Z,100020.37
2019-03-26T06:13:26.803Z,100026.30
2019-03-26T06:15:54.106Z,100031.28
2019-03-26T06:18:21.390Z,100038.30
2019-03-26T06:20:48.850Z,100037.53
2019-03-26T06:23:18.154Z,100034.48
2019-03-26T06:25:45.084Z,100037.80
2019-03-26T06:28:12.357Z,100040.84
2019-03-26T06:30:39.391Z,100043.45
2019-03-26T06:33:07.123Z,100045.73
2019-03-26T06:35:34.400Z,100041.65
2019-03-26T06:38:01.161Z,100051.27
2019-03-26T06:40:28.500Z,100047.37
2019-03-26T06:42:55.245Z,100049.23
2019-03-26T06:45:23.070Z,100052.20
2019-03-26T06:47:49.924Z,100056.70
2019-03-26T06:50:18.101Z,100055.39
2019-03-26T06:52:45.317Z,100062.84
2019-03-26T06:55:12.403Z,100055.53
2019-03-26T06:57:39.758Z,100058.33
2019-03-26T07:00:11.193Z,100067.56
2019-03-26T07:02:38.256Z,100070.52
2019-03-26T07:05:05.827Z,100078.12
2019-03-26T07:07:32.721Z,100076.81
2019-03-26T07:09:59.737Z,100067.73
2019-03-26T07:12:26.521Z,100072.10
2019-03-26T07:14:53.714Z,100067.67
2019-03-26T07:17:20.967Z,100075.75
2019-03-26T07:19:48.345Z,100063.89
2019-03-26T07:22:18.647Z,100068.52
2019-03-26T07:24:45.721Z,100065.23
2019-03-26T07:27:12.579Z,100064.20
2019-03-26T07:29:39.435Z,100079.31
2019-03-26T07:32:06.250Z,100093.55
2019-03-26T07:34:33.217Z,100092.50
2019-03-26T07:37:00.102Z,100092.41
2019-03-26T07:39:27.223Z,100087.41
2019-03-26T07:41:54.099Z,100099.64
2019-03-26T07:44:20.848Z,100103.56
2019-03-26T07:46:48.488Z,100105.42
2019-03-26T07:49:15.236Z,100099.36
2019-03-26T07:51:42.387Z,100099.04
2019-03-26T07:54:09.248Z,100095.60
2019-03-26T07:56:36.221Z,100093.97
2019-03-26T07:59:03.081Z,100081.16
2019-03-26T08:01:30.566Z,100079.69
2019-03-26T08:03:57.811Z,100079.78
2019-03-26T08:06:24.989Z,100085.16
2019-03-26T08:08:51.741Z,100076.83
2019-03-26T08:11:18.705Z,100081.25
2019-03-26T08:13:46.065Z,100076.25
2019-03-26T08:16:13.099Z,100071.11
2019-03-26T08:18:39.986Z,100069.45
2019-03-26T08:21:06.825Z,100067.72
2019-03-26T08:23:33.797Z,100067.32
2019-03-26T08:26:01.106Z,100084.44
2019-03-26T08:28:28.069Z,100082.13
2019-03-26T08:30:55.048Z,100094.34
2019-03-26T08:33:23.407Z,100096.72
2019-03-26T08:35:50.904Z,100104.84
2019-03-26T08:38:17.912Z,100114.48
2019-03-26T08:40:44.858Z,100114.31
2019-03-26T08:43:11.608Z,100118.31
2019-03-26T08:45:39.667Z,100126.16
2019-03-26T08:48:06.486Z,100132.52
2019-03-26T08:50:33.300Z,100132.14
2019-03-26T08:53:00.062Z,100124.46
2019-03-26T08:55:27.017Z,100123.50
2019-03-26T08:57:53.934Z,100117.59
2019-03-26T09:00:21.266Z,100124.06
2019-03-26T09:02:51.567Z,100119.36
2019-03-26T09:05:18.809Z,100123.01
2019-03-26T09:07:45.612Z,100125.08
2019-03-26T09:10:13.446Z,100123.32
2019-03-26T09:12:40.322Z,100120.27
2019-03-26T09:15:14.256Z,100119.22
2019-03-26T09:17:40.233Z,100118.52
2019-03-26T09:20:10.335Z,100116.19
2019-03-26T09:22:37.136Z,100114.88
2019-03-26T09:25:08.095Z,100122.16
2019-03-26T09:27:35.194Z,100117.44
2019-03-26T09:30:06.240Z,100122.00
2019-03-26T09:32:33.040Z,100127.91
2019-03-26T09:34:59.963Z,100126.36
2019-03-26T09:37:27.034Z,100133.37
2019-03-26T09:39:53.837Z,100135.36
2019-03-26T09:42:21.472Z,100131.63
2019-03-26T09:44:48.615Z,100132.28
2019-03-26T09:47:16.685Z,100134.66
2019-03-26T09:49:46.852Z,100140.30
2019-03-26T09:52:14.539Z,100148.41
2019-03-26T09:54:41.941Z,100154.23
2019-03-26T09:57:08.971Z,100153.47
2019-03-26T09:59:35.865Z,100147.39
2019-03-26T10:02:03.126Z,100147.44
2019-03-26T10:04:30.107Z,100158.33
2019-03-26T10:06:56.993Z,100148.95
2019-03-26T10:09:23.797Z,100157.61
2019-03-26T10:11:50.922Z,100164.81
2019-03-26T10:14:18.315Z,100163.16
2019-03-26T10:16:45.287Z,100165.20
2019-03-26T10:19:12.152Z,100159.01
2019-03-26T10:21:39.292Z,100165.20
2019-03-26T10:24:06.297Z,100166.91
2019-03-26T10:26:33.759Z,100152.55
2019-03-26T10:29:13.841Z,100152.55
2019-03-26T10:31:29.893Z,100152.77
2019-03-26T10:33:56.772Z,100150.77
2019-03-26T10:36:24.760Z,100144.86
2019-03-26T10:39:05.050Z,100143.41
2019-03-26T10:41:20.705Z,100148.34
2019-03-26T10:43:47.733Z,100148.90
2019-03-26T10:46:14.651Z,100146.84
2019-03-26T10:48:41.790Z,100142.28
2019-03-26T10:51:13.649Z,100145.58
2019-03-26T10:53:40.719Z,100145.09
2019-03-26T10:56:07.949Z,100138.45
2019-03-26T10:58:34.731Z,100135.70
2019-03-26T11:01:01.805Z,100134.09
2019-03-26T11:03:29.175Z,100129.42
2019-03-26T11:05:56.115Z,100123.80
2019-03-26T11:08:23.078Z,100106.03
2019-03-26T11:10:50.168Z,100126.14
2019-03-26T11:13:21.387Z,100129.53
2019-03-26T11:15:46.374Z,100130.03
2019-03-26T11:18:13.145Z,100131.38
2019-03-26T11:20:40.147Z,100125.63
2019-03-26T11:23:07.223Z,100127.22
2019-03-26T11:25:34.295Z,100124.75
2019-03-26T11:28:01.307Z,100116.62
2019-03-26T11:30:28.851Z,100111.45
2019-03-26T11:32:55.830Z,100106.80
2019-03-26T11:35:23.110Z,100105.23
2019-03-26T11:37:50.376Z,100102.31
2019-03-26T11:40:18.492Z,100101.83
2019-03-26T11:42:47.625Z,100101.87
2019-03-26T11:45:17.670Z,100102.93
2019-03-26T11:47:45.235Z,100106.62
2019-03-26T11:50:14.365Z,100111.48
2019-03-26T11:52:43.761Z,100109.61
2019-03-26T11:55:11.745Z,100110.41
2019-03-26T11:57:39.069Z,100101.37
2019-03-26T12:00:13.243Z,100093.77
2019-03-26T12:02:40.044Z,100090.02
2019-03-26T12:05:07.434Z,100090.61
2019-03-26T12:07:39.448Z,100091.17
2019-03-26T12:10:07.717Z,100094.67
2019-03-26T12:12:34.585Z,100091.62
2019-03-26T12:15:03.689Z,100095.16
2019-03-26T12:17:33.740Z,100093.84
2019-03-26T12:20:01.151Z,100085.23
2019-03-26T12:22:31.229Z,100088.48
2019-03-26T12:24:56.704Z,100088.52
2019-03-26T12:27:24.155Z,100079.90
2019-03-26T12:29:51.266Z,100076.71
2019-03-26T12:32:21.090Z,100077.63
2019-03-26T12:34:48.144Z,100063.19
2019-03-26T12:37:15.203Z,100054.53
2019-03-26T12:39:44.230Z,100051.55
2019-03-26T12:42:11.043Z,100058.84
2019-03-26T12:44:38.532Z,100055.35
2019-03-26T12:47:05.462Z,100064.92
2019-03-26T12:49:32.857Z,100058.39
2019-03-26T12:52:01.303Z,100057.95
2019-03-26T12:54:29.543Z,100065.38
2019-03-26T12:56:56.782Z,100062.66
2019-03-26T12:59:26.525Z,100054.52
2019-03-26T13:01:53.377Z,100060.21
2019-03-26T13:04:23.391Z,100055.86
2019-03-26T13:06:50.420Z,100060.19
2019-03-26T13:09:17.763Z,100055.80
2019-03-26T13:11:44.878Z,100059.91
2019-03-26T13:14:12.155Z,100055.73
2019-03-26T13:16:40.729Z,100060.19
2019-03-26T13:19:07.879Z,100062.69
2019-03-26T13:21:37.398Z,100053.00
2019-03-26T13:24:04.378Z,100058.50
2019-03-26T13:26:31.758Z,100048.43
2019-03-26T13:29:00.111Z,100048.59
2019-03-26T13:31:27.126Z,100055.05
2019-03-26T13:33:54.114Z,100042.56
2019-03-26T13:36:21.269Z,100041.11
2019-03-26T13:38:48.493Z,100042.96
2019-03-26T13:41:15.473Z,100042.84
2019-03-26T13:43:42.817Z,100038.95
2019-03-26T13:46:10.130Z,100035.12
2019-03-26T13:48:37.279Z,100031.75
2019-03-26T13:51:04.917Z,100035.62
2019-03-26T13:53:32.023Z,100029.38
2019-03-26T13:56:00.143Z,100023.64
2019-03-26T13:58:27.647Z,100025.03
2019-03-26T14:00:54.803Z,100024.79
2019-03-26T14:03:21.737Z,100026.21
2019-03-26T14:05:48.852Z,100022.36
2019-03-26T14:08:15.872Z,100018.33
2019-03-26T14:10:42.923Z,100012.88
2019-03-26T14:13:10.470Z,100006.58
2019-03-26T14:15:38.232Z,100005.45
2019-03-26T14:18:05.502Z,100008.48
2019-03-26T14:20:36.163Z,100010.37
2019-03-26T14:23:03.270Z,100005.34
2019-03-26T14:25:30.072Z,100009.78
2019-03-26T14:27:57.024Z,100006.36
2019-03-26T14:30:39.349Z,99998.50
2019-03-26T14:33:06.924Z,99997.17
2019-03-26T14:35:33.879Z,99999.78
2019-03-26T14:38:01.351Z,99997.02
2019-03-26T14:40:28.189Z,99993.84
2019-03-26T14:42:54.981Z,99998.06
2019-03-26T14:45:21.964Z,99993.00
2019-03-26T14:47:48.742Z,99991.71
2019-03-26T14:50:16.279Z,99992.83
2019-03-26T14:52:43.322Z,99998.91
2019-03-26T14:55:10.492Z,100001.43
2019-03-26T14:57:37.699Z,100000.98
2019-03-26T15:00:06.277Z,99995.84
2019-03-26T15:02:33.083Z,100003.73
2019-03-26T15:04:59.948Z,100002.63
2019-03-26T15:07:26.802Z,100005.34
2019-03-26T15:09:54.058Z,100002.09
2019-03-26T15:12:21.460Z,100005.09
2019-03-26T15:14:48.441Z,100005.66
2019-03-26T15:17:15.616Z,100002.13
2019-03-26T15:19:42.578Z,100009.19
2019-03-26T15:22:09.564Z,100005.94
2019-03-26T15:24:36.336Z,100007.55
2019-03-26T15:27:03.333Z,100011.64
2019-03-26T15:29:30.553Z,100014.88
2019-03-26T15:31:59.417Z,100009.47
2019-03-26T15:34:35.930Z,100010.55
2019-03-26T15:36:55.368Z,100009.47
2019-03-26T15:39:22.360Z,100008.11
2019-03-26T15:41:49.255Z,100010.55
2019-03-26T15:44:16.153Z,100002.08
2019-03-26T15:46:43.084Z,100008.33
2019-03-26T15:49:11.119Z,100007.52
2019-03-26T15:51:37.917Z,100012.94
2019-03-26T15:54:04.885Z,100015.97
2019-03-26T15:56:33.393Z,100015.98
2019-03-26T15:59:00.344Z,100015.42
2019-03-26T16:01:27.272Z,100015.98
2019-03-26T16:03:54.152Z,100011.08
2019-03-26T16:06:20.960Z,100009.14
2019-03-26T16:08:47.988Z,100013.43
2019-03-26T16:11:15.381Z,100008.23
2019-03-26T16:13:42.638Z,100018.27
2019-03-26T16:16:09.540Z,100020.41
2019-03-26T16:18:36.650Z,100018.22
2019-03-26T16:21:03.597Z,100020.13
2019-03-26T16:23:30.416Z,100016.06
2019-03-26T16:25:57.589Z,100021.22
2019-03-26T16:28:24.545Z,100018.48
2019-03-26T16:30:54.395Z,100026.55
2019-03-26T16:33:21.836Z,100027.05
2019-03-26T16:35:48.839Z,100032.48
2019-03-26T16:38:16.301Z,100033.78
2019-03-26T16:40:43.197Z,100033.50
2019-03-26T16:43:10.352Z,100040.30
2019-03-26T16:45:40.218Z,100038.70
2019-03-26T16:48:07.436Z,100039.25
2019-03-26T16:50:34.919Z,100039.47
2019-03-26T16:53:01.785Z,100038.06
2019-03-26T16:55:28.628Z,100041.85
2019-03-26T16:57:55.569Z,100048.34
2019-03-26T17:00:30.776Z,100042.90
2019-03-26T17:02:59.205Z,100047.20
2019-03-26T17:05:26.381Z,100047.23
2019-03-26T17:07:53.335Z,100042.59
2019-03-26T17:10:20.649Z,100048.84
2019-03-26T17:12:47.585Z,100047.79
2019-03-26T17:15:16.542Z,100052.66
2019-03-26T17:17:43.514Z,100058.25
2019-03-26T17:20:10.527Z,100057.42
2019-03-26T17:22:37.423Z,100052.73
2019-03-26T17:25:06.284Z,100058.39
2019-03-26T17:27:33.448Z,100057.23
2019-03-26T17:30:03.144Z,100052.93
2019-03-26T17:32:29.920Z,100049.67
2019-03-26T17:34:57.316Z,100051.54
2019-03-26T17:37:27.559Z,100046.92
2019-03-26T17:39:54.489Z,100047.45
2019-03-26T17:42:23.198Z,100051.22
2019-03-26T17:44:50.076Z,100052.02
2019-03-26T17:47:17.349Z,100056.08
2019-03-26T17:49:44.689Z,100056.59
2019-03-26T17:52:11.691Z,100053.29
2019-03-26T17:54:38.572Z,100059.69
2019-03-26T17:57:05.545Z,100057.39
2019-03-26T17:59:32.462Z,100059.31
2019-03-26T18:01:59.790Z,100069.90
2019-03-26T18:04:27.376Z,100065.55
2019-03-26T18:06:54.363Z,100063.59
2019-03-26T18:09:21.163Z,100068.95
2019-03-26T18:11:48.049Z,100070.55
2019-03-26T18:14:14.965Z,100073.02
2019-03-26T18:16:41.903Z,100082.70
2019-03-26T18:19:08.848Z,100078.47
2019-03-26T18:21:36.112Z,100082.23
2019-03-26T18:24:03.381Z,100085.22
2019-03-26T18:26:30.382Z,100083.58
2019-03-26T18:28:57.354Z,100089.23
2019-03-26T18:31:24.432Z,100086.19
2019-03-26T18:33:51.407Z,100090.61
2019-03-26T18:36:18.332Z,100091.77
2019-03-26T18:38:45.636Z,100095.94
2019-03-26T18:41:12.726Z,100099.19
2019-03-26T18:43:39.648Z,100094.70
2019-03-26T18:46:07.360Z,100092.45
2019-03-26T18:48:34.404Z,100098.16
2019-03-26T18:51:01.468Z,100098.89
2019-03-26T18:53:28.311Z,100110.12
2019-03-26T18:55:55.226Z,100108.02
2019-03-26T18:58:22.125Z,100100.83
2019-03-26T19:00:49.708Z,100101.59
2019-03-26T19:03:16.585Z,100100.19
2019-03-26T19:05:43.592Z,100101.05
2019-03-26T19:08:10.572Z,100103.47
2019-03-26T19:10:37.788Z,100107.25
2019-03-26T19:13:17.963Z,100100.81
2019-03-26T19:15:34.021Z,100102.08
2019-03-26T19:18:01.108Z,100104.38
2019-03-26T19:20:29.052Z,100102.36
2019-03-26T19:22:56.021Z,100100.09
2019-03-26T19:25:23.384Z,100104.87
2019-03-26T19:27:51.618Z,100108.37
2019-03-26T19:30:18.768Z,100106.31
2019-03-26T19:32:47.186Z,100104.81
2019-03-26T19:35:14.434Z,100109.05
2019-03-26T19:37:41.245Z,100104.30
2019-03-26T19:40:10.261Z,100105.64
2019-03-26T19:42:40.370Z,100109.41
2019-03-26T19:45:08.010Z,100108.28
2019-03-26T19:47:34.803Z,100116.69
2019-03-26T19:50:05.946Z,100119.09
2019-03-26T19:52:32.865Z,100118.08
2019-03-26T19:55:00.974Z,100118.78
2019-03-26T19:57:28.519Z,100117.83
2019-03-26T19:59:55.565Z,100113.45
2019-03-26T20:02:22.757Z,100116.34
2019-03-26T20:04:49.502Z,100120.86
2019-03-26T20:07:16.274Z,100127.38
2019-03-26T20:09:44.086Z,100123.67
2019-03-26T20:12:11.088Z,100116.53
2019-03-26T20:14:38.278Z,100122.64
2019-03-26T20:17:05.491Z,100133.24
2019-03-26T20:19:32.678Z,100131.03
2019-03-26T20:21:59.684Z,100127.20
2019-03-26T20:24:26.600Z,100122.75
2019-03-26T20:26:53.973Z,100124.69
2019-03-26T20:29:20.951Z,100126.61
2019-03-26T20:31:48.217Z,100130.55
2019-03-26T20:34:15.456Z,100129.67
2019-03-26T20:36:42.205Z,100121.16
2019-03-26T20:39:09.885Z,100133.57
2019-03-26T20:41:36.751Z,100131.71
2019-03-26T20:44:03.879Z,100126.00
2019-03-26T20:46:30.669Z,100127.27
2019-03-26T20:48:57.438Z,100125.89
2019-03-26T20:51:25.059Z,100128.87
2019-03-26T20:53:52.216Z,100130.36
2019-03-26T20:56:19.272Z,100125.73
2019-03-26T20:58:46.183Z,100123.84
2019-03-26T21:01:14.770Z,100128.66
2019-03-26T21:03:42.440Z,100134.33
2019-03-26T21:06:09.351Z,100133.58
2019-03-26T21:08:36.663Z,100136.19
2019-03-26T21:11:03.688Z,100138.55
2019-03-26T21:13:35.135Z,100135.44
2019-03-26T21:16:02.149Z,100135.61
2019-03-26T21:18:28.989Z,100132.80
2019-03-26T21:20:56.186Z,100138.56
2019-03-26T21:23:23.446Z,100140.50
2019-03-26T21:25:50.619Z,100147.06
2019-03-26T21:28:17.654Z,100148.99
2019-03-26T21:30:45.039Z,100145.54
2019-03-26T21:33:11.954Z,100155.26
2019-03-26T21:35:39.180Z,100150.80
2019-03-26T21:38:06.160Z,100150.62
2019-03-26T21:40:33.241Z,100158.07
2019-03-26T21:43:00.560Z,100154.08
2019-03-26T21:45:36.404Z,100164.62
2019-03-26T21:48:05.168Z,100154.83
2019-03-26T21:50:33.898Z,100150.80
2019-03-26T21:53:00.989Z,100153.20
2019-03-26T21:55:28.434Z,100153.48
2019-03-26T21:57:55.938Z,100154.21
2019-03-26T22:00:22.941Z,100157.61
2019-03-26T22:02:49.951Z,100159.13
2019-03-26T22:05:17.084Z,100165.98
2019-03-26T22:07:44.093Z,100165.80
2019-03-26T22:10:12.507Z,100173.81
2019-03-26T22:12:39.397Z,100173.44
2019-03-26T22:15:11.920Z,100180.70
2019-03-26T22:17:38.855Z,100184.97
2019-03-26T22:20:07.322Z,100174.05
2019-03-26T22:22:34.625Z,100181.18
2019-03-26T22:25:03.673Z,100187.15
2019-03-26T22:27:31.447Z,100179.44
2019-03-26T22:29:58.496Z,100177.60
2019-03-26T22:32:25.843Z,100176.45
2019-03-26T22:34:52.778Z,100168.38
2019-03-26T22:37:19.555Z,100174.30
2019-03-26T22:39:46.459Z,100170.56
2019-03-26T22:42:13.224Z,100181.31
2019-03-26T22:44:40.245Z,100185.11
2019-03-26T22:47:07.194Z,100172.52
2019-03-26T22:49:36.607Z,100178.36
2019-03-26T22:52:03.608Z,100180.72
2019-03-26T22:54:30.859Z,100171.77
2019-03-26T22:56:57.836Z,100169.80
2019-03-26T22:59:24.597Z,100170.48
2019-03-26T23:01:51.627Z,100167.95
2019-03-26T23:04:20.018Z,100173.01
2019-03-26T23:06:47.190Z,100169.86
2019-03-26T23:09:13.970Z,100177.02
2019-03-26T23:11:42.344Z,100172.23
2019-03-26T23:14:09.661Z,100169.24
2019-03-26T23:16:36.483Z,100172.23
2019-03-26T23:19:03.474Z,100177.34
2019-03-26T23:21:32.110Z,100173.03
2019-03-26T23:23:59.517Z,100173.19
2019-03-26T23:26:26.308Z,100172.54
2019-03-26T23:28:53.077Z,100177.52
2019-03-26T23:31:19.834Z,100177.97
2019-03-26T23:33:47.069Z,100184.69
2019-03-26T23:36:14.036Z,100175.30
2019-03-26T23:38:41.256Z,100170.62
2019-03-26T23:41:08.766Z,100173.30
2019-03-26T23:43:35.658Z,100172.98
2019-03-26T23:46:02.552Z,100175.53
2019-03-26T23:48:29.890Z,100173.72
2019-03-26T23:50:57.119Z,100173.50
2019-03-26T23:53:23.914Z,100174.39
2019-03-26T23:55:51.058Z,100170.66
2019-03-26T23:58:17.923Z,100166.03
